createdAt,value
2023-05-14T00:04:12.100Z,101505.27
2023-05-14T00:09:20.127Z,101499.36
2023-05-14T00:14:28.098Z,101497.66
2023-05-14T00:19:36.298Z,101495.84
2023-05-14T00:24:44.417Z,101496.34
2023-05-14T00:29:52.495Z,101497.11
2023-05-14T00:35:00.761Z,101493.27
2023-05-14T00:40:13.140Z,101490.50
2023-05-14T00:45:21.514Z,101486.16
2023-05-14T00:50:29.703Z,101482.82
2023-05-14T00:55:38.102Z,101480.33
2023-05-14T01:00:46.388Z,101481.44
2023-05-14T01:06:05.417Z,101480.05
2023-05-14T01:11:21.683Z,101476.02
2023-05-14T01:16:31.507Z,101472.23
2023-05-14T01:21:44.112Z,101468.70
2023-05-14T01:26:52.487Z,101465.19
2023-05-14T01:32:07.649Z,101455.83
2023-05-14T01:37:16.773Z,101455.07
2023-05-14T01:42:25.101Z,101450.52
2023-05-14T01:47:33.266Z,101448.08
2023-05-14T01:52:41.458Z,101444.54
2023-05-14T01:57:49.408Z,101443.63
2023-05-14T02:02:57.687Z,101438.15
2023-05-14T02:08:06.069Z,101443.34
2023-05-14T02:13:14.010Z,101440.65
2023-05-14T02:18:21.947Z,101438.21
2023-05-14T02:23:40.532Z,101433.36
2023-05-14T02:28:49.822Z,101427.30
2023-05-14T02:33:57.758Z,101424.87
2023-05-14T02:39:05.971Z,101424.64
2023-05-14T02:44:13.951Z,101428.66
2023-05-14T02:49:21.941Z,101426.79
2023-05-14T02:54:29.931Z,101425.03
2023-05-14T02:59:37.912Z,101424.48
2023-05-14T03:04:46.825Z,101424.83
2023-05-14T03:09:54.861Z,101424.50
2023-05-14T03:15:02.809Z,101423.63
2023-05-14T03:20:14.077Z,101425.36
2023-05-14T03:25:22.349Z,101427.50
2023-05-14T03:30:30.642Z,101422.83
2023-05-14T03:35:38.852Z,101419.38
2023-05-14T03:40:47.176Z,101422.70
2023-05-14T03:45:55.147Z,101421.53
2023-05-14T03:51:03.627Z,101428.61
2023-05-14T03:56:11.651Z,101425.34
2023-05-14T04:01:19.997Z,101422.04
2023-05-14T04:06:28.036Z,101419.34
2023-05-14T04:11:36.017Z,101420.55
2023-05-14T04:16:44.065Z,101414.70
2023-05-14T04:21:52.081Z,101417.33
2023-05-14T04:27:01.035Z,101415.55
2023-05-14T04:32:09.902Z,101411.45
2023-05-14T04:37:17.895Z,101410.17
2023-05-14T04:42:26.079Z,101407.84
2023-05-14T04:47:34.542Z,101413.02
2023-05-14T04:52:42.791Z,101413.12
2023-05-14T04:57:50.766Z,101413.40
2023-05-14T05:02:59.056Z,101413.56
2023-05-14T05:08:07.437Z,101413.04
2023-05-14T05:13:17.114Z,101411.00
2023-05-14T05:18:25.087Z,101412.45
2023-05-14T05:23:33.127Z,101409.08
2023-05-14T05:28:41.086Z,101407.66
2023-05-14T05:33:49.374Z,101405.15
2023-05-14T05:38:58.018Z,101400.99
2023-05-14T05:44:06.170Z,101398.38
2023-05-14T05:49:14.110Z,101396.93
2023-05-14T05:54:22.075Z,101392.73
2023-05-14T05:59:30.097Z,101398.35
2023-05-14T06:04:38.078Z,101399.16
2023-05-14T06:09:46.018Z,101395.16
2023-05-14T06:14:55.552Z,101390.61
2023-05-14T06:20:05.605Z,101394.45
2023-05-14T06:25:14.346Z,101394.14
2023-05-14T06:30:22.804Z,101395.36
2023-05-14T06:35:31.336Z,101393.24
2023-05-14T06:40:39.499Z,101384.00
2023-05-14T06:45:49.434Z,101376.39
2023-05-14T06:50:57.890Z,101377.64
2023-05-14T06:56:06.338Z,101373.50
2023-05-14T07:01:14.638Z,101368.66
2023-05-14T07:06:23.003Z,101360.98
2023-05-14T07:11:30.958Z,101353.26
2023-05-14T07:16:39.346Z,101348.19
2023-05-14T07:21:47.393Z,101350.45
2023-05-14T07:26:57.749Z,101342.17
2023-05-14T07:32:06.029Z,101343.14
2023-05-14T07:37:13.995Z,101335.34
2023-05-14T07:42:34.565Z,101332.56
2023-05-14T07:47:44.513Z,101329.54
2023-05-14T07:52:52.776Z,101324.14
2023-05-14T07:58:01.150Z,101322.61
2023-05-14T08:03:09.296Z,101322.84
2023-05-14T08:08:17.516Z,101318.25
2023-05-14T08:13:34.493Z,101314.58
2023-05-14T08:18:50.452Z,101305.52
2023-05-14T08:23:58.455Z,101300.27
2023-05-14T08:29:07.172Z,101300.16
2023-05-14T08:34:16.380Z,101301.02
2023-05-14T08:39:24.347Z,101300.80
2023-05-14T08:44:49.009Z,101292.88
2023-05-14T08:50:03.985Z,101301.96
2023-05-14T08:55:13.467Z,101296.80
2023-05-14T09:00:22.714Z,101295.23
2023-05-14T09:05:30.908Z,101293.94
2023-05-14T09:10:40.386Z,101293.12
2023-05-14T09:15:49.531Z,101293.02
2023-05-14T09:20:58.733Z,101296.04
2023-05-14T09:26:08.622Z,101287.69
2023-05-14T09:31:16.676Z,101286.06
2023-05-14T09:36:27.161Z,101276.59
2023-05-14T09:41:38.426Z,101265.20
2023-05-14T09:46:46.932Z,101262.24
2023-05-14T09:51:55.001Z,101247.63
2023-05-14T09:57:03.132Z,101243.19
2023-05-14T10:02:23.149Z,101237.31
2023-05-14T10:07:36.629Z,101227.51
2023-05-14T10:12:49.020Z,101214.33
2023-05-14T10:18:01.921Z,101204.83
2023-05-14T10:23:10.534Z,101196.36
2023-05-14T10:28:18.589Z,101190.29
2023-05-14T10:33:26.499Z,101178.79
2023-05-14T10:38:37.270Z,101172.95
2023-05-14T10:43:45.584Z,101170.23
2023-05-14T10:48:53.600Z,101161.73
2023-05-14T10:54:03.417Z,101157.45
2023-05-14T10:59:11.630Z,101147.23
2023-05-14T11:04:24.424Z,101136.73
2023-05-14T11:09:32.571Z,101130.80
2023-05-14T11:14:40.570Z,101126.83
2023-05-14T11:19:51.026Z,101113.89
2023-05-14T11:24:59.159Z,101109.75
2023-05-14T11:30:13.422Z,101111.38
2023-05-14T11:35:21.414Z,101113.92
2023-05-14T11:40:29.566Z,101107.62
2023-05-14T11:45:37.891Z,101105.89
2023-05-14T11:50:50.972Z,101096.38
2023-05-14T11:55:59.206Z,101091.04
2023-05-14T12:01:07.524Z,101083.53
2023-05-14T12:06:15.523Z,101080.22
2023-05-14T12:11:24.740Z,101076.84
2023-05-14T12:16:35.536Z,101069.21
2023-05-14T12:21:51.010Z,101060.71
2023-05-14T12:27:02.205Z,101060.48
2023-05-14T12:32:13.077Z,101050.01
2023-05-14T12:37:21.047Z,101042.48
2023-05-14T12:42:29.078Z,101043.97
2023-05-14T12:47:37.562Z,101033.94
2023-05-14T12:52:56.428Z,101026.86
2023-05-14T12:58:08.345Z,101030.14
2023-05-14T13:03:32.464Z,101022.91
2023-05-14T13:09:04.036Z,101007.39
2023-05-14T13:14:12.115Z,101018.90
2023-05-14T13:19:34.209Z,101011.55
2023-05-14T13:24:50.065Z,101015.89
2023-05-14T13:29:58.101Z,101015.39
2023-05-14T13:35:10.798Z,101007.29
2023-05-14T13:40:20.275Z,101005.70
2023-05-14T13:45:29.847Z,100993.14
2023-05-14T13:50:37.852Z,100989.35
2023-05-14T13:55:49.254Z,100991.08
2023-05-14T14:00:57.863Z,100990.60
2023-05-14T14:06:06.514Z,100983.23
2023-05-14T14:11:17.845Z,100976.44
2023-05-14T14:16:25.950Z,100961.04
2023-05-14T14:21:34.294Z,100958.73
2023-05-14T14:26:42.415Z,100959.09
2023-05-14T14:31:50.476Z,100952.45
2023-05-14T14:36:58.516Z,100950.35
2023-05-14T14:42:07.766Z,100944.86
2023-05-14T14:47:15.750Z,100942.96
2023-05-14T14:52:24.081Z,100934.52
2023-05-14T14:57:32.073Z,100928.85
2023-05-14T15:02:42.672Z,100926.30
2023-05-14T15:07:50.878Z,100919.86
2023-05-14T15:13:00.367Z,100915.66
2023-05-14T15:18:08.782Z,100909.19
2023-05-14T15:23:16.846Z,100901.14
2023-05-14T15:28:24.771Z,100894.82
2023-05-14T15:33:34.039Z,100894.17
2023-05-14T15:38:42.431Z,100889.88
2023-05-14T15:43:50.802Z,100887.52
2023-05-14T15:48:58.789Z,100886.08
2023-05-14T15:54:07.224Z,100881.73
2023-05-14T15:59:16.634Z,100877.11
2023-05-14T16:04:25.261Z,100865.11
2023-05-14T16:09:33.303Z,100855.14
2023-05-14T16:14:42.220Z,100860.53
2023-05-14T16:20:02.302Z,100853.88
2023-05-14T16:25:34.443Z,100838.77
2023-05-14T16:30:48.576Z,100840.10
2023-05-14T16:36:12.385Z,100842.26
2023-05-14T16:41:21.900Z,100835.70
2023-05-14T16:46:30.739Z,100832.98
2023-05-14T16:51:43.598Z,100831.86
2023-05-14T16:56:51.963Z,100830.73
2023-05-14T17:02:00.324Z,100829.31
2023-05-14T17:07:12.863Z,100821.37
2023-05-14T17:12:47.099Z,100821.73
2023-05-14T17:18:15.549Z,100822.06
2023-05-14T17:23:42.472Z,100823.95
2023-05-14T17:29:06.543Z,100823.14
2023-05-14T17:34:30.551Z,100821.02
2023-05-14T17:40:04.823Z,100820.57
2023-05-14T17:45:22.654Z,100823.34
2023-05-14T17:50:30.824Z,100824.30
2023-05-14T17:55:45.764Z,100823.93
2023-05-14T18:00:54.678Z,100823.05
2023-05-14T18:06:02.846Z,100822.34
2023-05-14T18:11:10.792Z,100832.02
2023-05-14T18:16:18.824Z,100833.66
2023-05-14T18:21:26.925Z,100833.20
2023-05-14T18:26:37.240Z,100836.81
2023-05-14T18:31:46.367Z,100840.16
2023-05-14T18:36:54.414Z,100839.02
2023-05-14T18:42:02.374Z,100840.64
2023-05-14T18:47:10.689Z,100841.70
2023-05-14T18:52:18.634Z,100844.77
2023-05-14T18:57:27.333Z,100845.63
2023-05-14T19:02:35.543Z,100840.65
2023-05-14T19:07:48.129Z,100836.94
2023-05-14T19:12:56.350Z,100835.67
2023-05-14T19:18:04.823Z,100839.02
2023-05-14T19:23:12.925Z,100836.61
2023-05-14T19:28:21.438Z,100834.38
2023-05-14T19:33:29.664Z,100833.57
2023-05-14T19:38:37.686Z,100822.48
2023-05-14T19:43:45.725Z,100823.08
2023-05-14T19:48:53.664Z,100818.16
2023-05-14T19:54:01.865Z,100811.72
2023-05-14T19:59:09.819Z,100804.61
2023-05-14T20:04:18.020Z,100799.71
2023-05-14T20:09:26.142Z,100791.18
2023-05-14T20:14:34.098Z,100789.52
2023-05-14T20:19:43.854Z,100786.45
2023-05-14T20:24:52.875Z,100774.96
2023-05-14T20:30:00.891Z,100770.05
2023-05-14T20:35:10.610Z,100761.16
2023-05-14T20:40:18.837Z,100756.82
2023-05-14T20:45:27.070Z,100754.58
2023-05-14T20:50:35.339Z,100748.07
2023-05-14T20:55:44.800Z,100744.10
2023-05-14T21:00:52.715Z,100739.61
2023-05-14T21:06:01.268Z,100733.80
2023-05-14T21:11:09.274Z,100727.67
2023-05-14T21:16:17.314Z,100718.22
2023-05-14T21:21:26.098Z,100712.19
2023-05-14T21:26:36.978Z,100703.27
2023-05-14T21:31:45.001Z,100709.05
2023-05-14T21:36:53.079Z,100710.27
2023-05-14T21:42:01.159Z,100712.79
2023-05-14T21:47:12.204Z,100708.61
2023-05-14T21:52:20.276Z,100701.16
2023-05-14T21:57:31.835Z,100698.90
2023-05-14T22:02:42.184Z,100691.66
2023-05-14T22:07:50.536Z,100680.27
2023-05-14T22:12:58.698Z,100673.97
2023-05-14T22:18:07.991Z,100671.15
2023-05-14T22:23:16.234Z,100666.77
2023-05-14T22:28:24.384Z,100656.48
2023-05-14T22:33:33.345Z,100653.71
2023-05-14T22:38:43.882Z,100650.14
2023-05-14T22:43:52.514Z,100641.63
2023-05-14T22:49:00.552Z,100635.87
2023-05-14T22:54:08.786Z,100617.76
2023-05-14T22:59:16.746Z,100605.63
2023-05-14T23:04:24.786Z,100594.16
2023-05-14T23:09:32.856Z,100591.21
2023-05-14T23:14:40.873Z,100582.10
2023-05-14T23:19:48.881Z,100568.29
2023-05-14T23:24:56.882Z,100558.55
2023-05-14T23:30:05.891Z,100555.13
2023-05-14T23:35:13.947Z,100551.91
2023-05-14T23:40:22.103Z,100550.04
2023-05-14T23:45:30.587Z,100541.15
2023-05-14T23:50:39.002Z,100538.35
2023-05-14T23:55:47.107Z,100527.98
